sensor_id;sensor_type;location;lat;lon;timestamp;temperature;humidity
55219;DHT22;41088;44.012;20.902;2022-08-20T00:00:54;666.50;2201.60
55219;DHT22;41088;44.012;20.902;2022-08-20T00:03:24;666.50;2227.20
55219;DHT22;41088;44.012;20.902;2022-08-20T00:05:57;666.50;2227.20
55219;DHT22;41088;44.012;20.902;2022-08-20T00:08:24;666.50;2227.20
55219;DHT22;41088;44.012;20.902;2022-08-20T00:10:52;666.40;2252.80
55219;DHT22;41088;44.012;20.902;2022-08-20T00:13:23;666.40;2252.80
55219;DHT22;41088;44.012;20.902;2022-08-20T00:15:49;666.30;2252.80
55219;DHT22;41088;44.012;20.902;2022-08-20T00:18:15;666.20;2278.40
55219;DHT22;41088;44.012;20.902;2022-08-20T00:20:45;666.20;2432.00
55219;DHT22;41088;44.012;20.902;2022-08-20T00:23:12;666.10;2304.00
55219;DHT22;41088;44.012;20.902;2022-08-20T00:25:38;666.10;2329.60
55219;DHT22;41088;44.012;20.902;2022-08-20T00:28:05;666.20;2278.40
55219;DHT22;41088;44.012;20.902;2022-08-20T00:30:35;666.10;2304.00
55219;DHT22;41088;44.012;20.902;2022-08-20T00:33:13;666.10;2304.00
55219;DHT22;41088;44.012;20.902;2022-08-20T00:35:46;666.20;2304.00
55219;DHT22;41088;44.012;20.902;2022-08-20T00:38:14;666.10;2304.00
55219;DHT22;41088;44.012;20.902;2022-08-20T00:40:53;666.20;2329.60
55219;DHT22;41088;44.012;20.902;2022-08-20T00:44:11;666.10;2329.60
55219;DHT22;41088;44.012;20.902;2022-08-20T00:46:39;666.20;2329.60
55219;DHT22;41088;44.012;20.902;2022-08-20T00:49:08;666.10;2355.20
55219;DHT22;41088;44.012;20.902;2022-08-20T00:51:38;666.10;2355.20
55219;DHT22;41088;44.012;20.902;2022-08-20T00:54:08;666.10;2355.20
55219;DHT22;41088;44.012;20.902;2022-08-20T00:56:35;666.20;2355.20
55219;DHT22;41088;44.012;20.902;2022-08-20T00:59:04;666.20;2355.20
55219;DHT22;41088;44.012;20.902;2022-08-20T01:01:38;666.10;2329.60
55219;DHT22;41088;44.012;20.902;2022-08-20T01:04:05;666.10;2329.60
55219;DHT22;41088;44.012;20.902;2022-08-20T01:06:31;665.90;2329.60
55219;DHT22;41088;44.012;20.902;2022-08-20T01:08:57;665.90;2329.60
55219;DHT22;41088;44.012;20.902;2022-08-20T01:11:28;665.90;2355.20
55219;DHT22;41088;44.012;20.902;2022-08-20T01:14:05;665.90;2329.60
55219;DHT22;41088;44.012;20.902;2022-08-20T01:16:59;665.90;2329.60
55219;DHT22;41088;44.012;20.902;2022-08-20T01:19:43;665.90;2355.20
55219;DHT22;41088;44.012;20.902;2022-08-20T01:22:13;665.80;2355.20
55219;DHT22;41088;44.012;20.902;2022-08-20T01:27:36;665.60;2380.80
55219;DHT22;41088;44.012;20.902;2022-08-20T01:30:04;665.60;2406.40
55219;DHT22;41088;44.012;20.902;2022-08-20T01:32:30;640.90;2380.80
55219;DHT22;41088;44.012;20.902;2022-08-20T01:34:56;640.90;2380.80
55219;DHT22;41088;44.012;20.902;2022-08-20T01:37:23;640.80;2406.40
55219;DHT22;41088;44.012;20.902;2022-08-20T01:39:50;640.70;2406.40
55219;DHT22;41088;44.012;20.902;2022-08-20T01:42:36;640.50;2432.00
55219;DHT22;41088;44.012;20.902;2022-08-20T01:45:05;640.50;2432.00
55219;DHT22;41088;44.012;20.902;2022-08-20T01:47:33;640.50;2432.00
55219;DHT22;41088;44.012;20.902;2022-08-20T01:50:06;640.60;2432.00
55219;DHT22;41088;44.012;20.902;2022-08-20T01:55:08;640.80;2432.00
55219;DHT22;41088;44.012;20.902;2022-08-20T01:57:36;640.80;2432.00
55219;DHT22;41088;44.012;20.902;2022-08-20T02:00:13;640.70;2432.00
55219;DHT22;41088;44.012;20.902;2022-08-20T02:02:41;640.80;2432.00
55219;DHT22;41088;44.012;20.902;2022-08-20T02:05:07;640.70;2432.00
55219;DHT22;41088;44.012;20.902;2022-08-20T02:07:33;640.60;2432.00
55219;DHT22;41088;44.012;20.902;2022-08-20T02:10:00;640.70;2432.00
55219;DHT22;41088;44.012;20.902;2022-08-20T02:12:26;640.80;2432.00
55219;DHT22;41088;44.012;20.902;2022-08-20T02:14:53;640.80;2432.00
55219;DHT22;41088;44.012;20.902;2022-08-20T02:17:21;640.70;2432.00
55219;DHT22;41088;44.012;20.902;2022-08-20T02:19:54;640.50;2432.00
55219;DHT22;41088;44.012;20.902;2022-08-20T02:22:45;640.50;2432.00
55219;DHT22;41088;44.012;20.902;2022-08-20T02:25:14;640.50;2432.00
55219;DHT22;41088;44.012;20.902;2022-08-20T02:27:42;640.30;2432.00
55219;DHT22;41088;44.012;20.902;2022-08-20T02:30:13;640.30;2432.00
55219;DHT22;41088;44.012;20.902;2022-08-20T02:32:40;640.30;2432.00
55219;DHT22;41088;44.012;20.902;2022-08-20T02:35:08;640.30;2432.00
55219;DHT22;41088;44.012;20.902;2022-08-20T02:37:35;640.20;2432.00
55219;DHT22;41088;44.012;20.902;2022-08-20T02:40:04;640.30;2432.00
55219;DHT22;41088;44.012;20.902;2022-08-20T02:42:33;640.20;2432.00
55219;DHT22;41088;44.012;20.902;2022-08-20T02:45:00;640.10;2432.00
55219;DHT22;41088;44.012;20.902;2022-08-20T02:47:26;640.00;2432.00
55219;DHT22;41088;44.012;20.902;2022-08-20T02:49:53;640.00;2432.00
55219;DHT22;41088;44.012;20.902;2022-08-20T02:52:21;615.30;2432.00
55219;DHT22;41088;44.012;20.902;2022-08-20T02:54:47;615.30;2432.00
55219;DHT22;41088;44.012;20.902;2022-08-20T02:57:16;615.30;2432.00
55219;DHT22;41088;44.012;20.902;2022-08-20T02:59:46;615.20;2432.00
55219;DHT22;41088;44.012;20.902;2022-08-20T03:02:13;615.20;2432.00
55219;DHT22;41088;44.012;20.902;2022-08-20T03:04:43;615.30;2432.00
55219;DHT22;41088;44.012;20.902;2022-08-20T03:07:10;615.30;2432.00
55219;DHT22;41088;44.012;20.902;2022-08-20T03:09:37;640.00;2432.00
55219;DHT22;41088;44.012;20.902;2022-08-20T03:12:04;615.30;2432.00
55219;DHT22;41088;44.012;20.902;2022-08-20T03:14:34;615.20;2432.00
55219;DHT22;41088;44.012;20.902;2022-08-20T03:17:01;615.20;2432.00
55219;DHT22;41088;44.012;20.902;2022-08-20T03:19:27;615.10;2432.00
55219;DHT22;41088;44.012;20.902;2022-08-20T03:21:54;615.10;2432.00
55219;DHT22;41088;44.012;20.902;2022-08-20T03:24:23;615.10;2432.00
55219;DHT22;41088;44.012;20.902;2022-08-20T03:26:49;615.10;2432.00
55219;DHT22;41088;44.012;20.902;2022-08-20T03:29:17;615.10;2432.00
55219;DHT22;41088;44.012;20.902;2022-08-20T03:31:43;615.10;2432.00
55219;DHT22;41088;44.012;20.902;2022-08-20T03:34:10;615.10;2432.00
55219;DHT22;41088;44.012;20.902;2022-08-20T03:36:36;615.10;2432.00
55219;DHT22;41088;44.012;20.902;2022-08-20T03:39:05;615.20;2432.00
55219;DHT22;41088;44.012;20.902;2022-08-20T03:41:36;615.10;2432.00
55219;DHT22;41088;44.012;20.902;2022-08-20T03:44:03;615.10;2432.00
55219;DHT22;41088;44.012;20.902;2022-08-20T03:46:32;615.10;2432.00
55219;DHT22;41088;44.012;20.902;2022-08-20T03:49:00;615.10;2432.00
55219;DHT22;41088;44.012;20.902;2022-08-20T03:51:28;615.10;2432.00
55219;DHT22;41088;44.012;20.902;2022-08-20T03:53:54;615.10;2432.00
55219;DHT22;41088;44.012;20.902;2022-08-20T03:56:20;615.00;2432.00
55219;DHT22;41088;44.012;20.902;2022-08-20T03:58:46;615.00;2432.00
55219;DHT22;41088;44.012;20.902;2022-08-20T04:01:13;615.00;2432.00
55219;DHT22;41088;44.012;20.902;2022-08-20T04:03:39;615.00;2432.00
55219;DHT22;41088;44.012;20.902;2022-08-20T04:06:07;615.00;2432.00
55219;DHT22;41088;44.012;20.902;2022-08-20T04:08:33;615.00;2432.00
55219;DHT22;41088;44.012;20.902;2022-08-20T04:11:08;615.00;2432.00
55219;DHT22;41088;44.012;20.902;2022-08-20T04:17:19;640.00;2432.00
55219;DHT22;41088;44.012;20.902;2022-08-20T04:19:45;640.00;2432.00
55219;DHT22;41088;44.012;20.902;2022-08-20T04:22:12;640.10;2432.00
55219;DHT22;41088;44.012;20.902;2022-08-20T04:24:39;640.20;2432.00
55219;DHT22;41088;44.012;20.902;2022-08-20T04:27:06;640.30;2432.00
55219;DHT22;41088;44.012;20.902;2022-08-20T04:29:34;640.50;2432.00
55219;DHT22;41088;44.012;20.902;2022-08-20T04:32:15;640.90;2432.00
55219;DHT22;41088;44.012;20.902;2022-08-20T04:34:40;665.60;2432.00
55219;DHT22;41088;44.012;20.902;2022-08-20T04:37:07;665.80;2432.00
55219;DHT22;41088;44.012;20.902;2022-08-20T04:42:02;691.30;2432.00
55219;DHT22;41088;44.012;20.902;2022-08-20T04:44:28;691.40;2432.00
55219;DHT22;41088;44.012;20.902;2022-08-20T04:49:21;692.10;2432.00
55219;DHT22;41088;44.012;20.902;2022-08-20T04:51:49;716.80;2432.00
55219;DHT22;41088;44.012;20.902;2022-08-20T04:54:15;716.80;2432.00
55219;DHT22;41088;44.012;20.902;2022-08-20T04:56:42;691.90;2432.00
55219;DHT22;41088;44.012;20.902;2022-08-20T04:59:09;691.60;2432.00
55219;DHT22;41088;44.012;20.902;2022-08-20T05:01:35;691.50;2432.00
55219;DHT22;41088;44.012;20.902;2022-08-20T05:04:01;691.50;2432.00
55219;DHT22;41088;44.012;20.902;2022-08-20T05:06:30;691.40;2432.00
55219;DHT22;41088;44.012;20.902;2022-08-20T05:08:58;691.30;2432.00
55219;DHT22;41088;44.012;20.902;2022-08-20T05:13:51;743.10;2380.80
55219;DHT22;41088;44.012;20.902;2022-08-20T05:16:18;743.00;2380.80
55219;DHT22;41088;44.012;20.902;2022-08-20T05:18:50;742.80;2380.80
55219;DHT22;41088;44.012;20.902;2022-08-20T05:21:17;742.80;2380.80
55219;DHT22;41088;44.012;20.902;2022-08-20T05:23:42;742.90;2355.20
55219;DHT22;41088;44.012;20.902;2022-08-20T05:26:11;742.80;2380.80
55219;DHT22;41088;44.012;20.902;2022-08-20T05:28:38;743.10;2355.20
55219;DHT22;41088;44.012;20.902;2022-08-20T05:31:06;768.90;2227.20
55219;DHT22;41088;44.012;20.902;2022-08-20T05:33:36;793.90;2201.60
55219;DHT22;41088;44.012;20.902;2022-08-20T05:38:31;768.90;2201.60
55219;DHT22;41088;44.012;20.902;2022-08-20T05:40:57;768.70;2201.60
55219;DHT22;41088;44.012;20.902;2022-08-20T05:43:23;768.60;2201.60
55219;DHT22;41088;44.012;20.902;2022-08-20T05:45:49;768.50;2201.60
55219;DHT22;41088;44.012;20.902;2022-08-20T05:48:21;768.30;2227.20
55219;DHT22;41088;44.012;20.902;2022-08-20T05:50:49;768.20;2252.80
55219;DHT22;41088;44.012;20.902;2022-08-20T05:53:17;743.20;2329.60
55219;DHT22;41088;44.012;20.902;2022-08-20T05:55:43;743.10;2329.60
55219;DHT22;41088;44.012;20.902;2022-08-20T05:58:19;743.20;2355.20
55219;DHT22;41088;44.012;20.902;2022-08-20T06:00:46;768.00;2329.60
55219;DHT22;41088;44.012;20.902;2022-08-20T06:03:12;768.20;2329.60
55219;DHT22;41088;44.012;20.902;2022-08-20T06:05:56;768.30;2329.60
55219;DHT22;41088;44.012;20.902;2022-08-20T06:08:22;768.40;2278.40
55219;DHT22;41088;44.012;20.902;2022-08-20T06:10:49;768.20;2278.40
55219;DHT22;41088;44.012;20.902;2022-08-20T06:13:15;768.20;2227.20
55219;DHT22;41088;44.012;20.902;2022-08-20T06:15:41;743.30;2278.40
55219;DHT22;41088;44.012;20.902;2022-08-20T06:18:09;742.80;2252.80
55219;DHT22;41088;44.012;20.902;2022-08-20T06:20:36;742.70;2304.00
55219;DHT22;41088;44.012;20.902;2022-08-20T06:23:03;742.50;2304.00
55219;DHT22;41088;44.012;20.902;2022-08-20T06:25:30;717.60;2304.00
55219;DHT22;41088;44.012;20.902;2022-08-20T06:27:56;717.40;2304.00
55219;DHT22;41088;44.012;20.902;2022-08-20T06:30:21;717.30;2329.60
55219;DHT22;41088;44.012;20.902;2022-08-20T06:32:47;717.30;2329.60
55219;DHT22;41088;44.012;20.902;2022-08-20T06:37:43;716.80;2380.80
55219;DHT22;41088;44.012;20.902;2022-08-20T06:40:22;692.10;2355.20
55219;DHT22;41088;44.012;20.902;2022-08-20T06:42:50;692.00;2355.20
55219;DHT22;41088;44.012;20.902;2022-08-20T06:45:22;692.00;2329.60
55219;DHT22;41088;44.012;20.902;2022-08-20T06:47:53;692.00;2329.60
55219;DHT22;41088;44.012;20.902;2022-08-20T06:50:30;692.00;2380.80
55219;DHT22;41088;44.012;20.902;2022-08-20T06:52:57;692.00;2432.00
55219;DHT22;41088;44.012;20.902;2022-08-20T06:55:24;716.80;2432.00
55219;DHT22;41088;44.012;20.902;2022-08-20T06:58:02;692.10;2406.40
55219;DHT22;41088;44.012;20.902;2022-08-20T07:00:30;716.80;2406.40
55219;DHT22;41088;44.012;20.902;2022-08-20T07:02:59;717.00;2355.20
55219;DHT22;41088;44.012;20.902;2022-08-20T07:05:27;717.10;2355.20
55219;DHT22;41088;44.012;20.902;2022-08-20T07:07:53;717.10;2355.20
55219;DHT22;41088;44.012;20.902;2022-08-20T07:10:21;717.20;2380.80
55219;DHT22;41088;44.012;20.902;2022-08-20T07:12:47;717.60;2355.20
55219;DHT22;41088;44.012;20.902;2022-08-20T07:15:15;717.40;2355.20
55219;DHT22;41088;44.012;20.902;2022-08-20T07:17:46;717.30;2355.20
55219;DHT22;41088;44.012;20.902;2022-08-20T07:20:14;717.60;2329.60
55219;DHT22;41088;44.012;20.902;2022-08-20T07:22:40;742.40;2355.20
55219;DHT22;41088;44.012;20.902;2022-08-20T07:25:09;742.60;2329.60
55219;DHT22;41088;44.012;20.902;2022-08-20T07:27:37;742.70;2304.00
55219;DHT22;41088;44.012;20.902;2022-08-20T07:30:10;742.70;2304.00
55219;DHT22;41088;44.012;20.902;2022-08-20T07:32:57;742.70;2304.00
55219;DHT22;41088;44.012;20.902;2022-08-20T07:35:23;742.70;2329.60
55219;DHT22;41088;44.012;20.902;2022-08-20T07:37:50;742.80;2304.00
55219;DHT22;41088;44.012;20.902;2022-08-20T07:40:29;743.00;2432.00
55219;DHT22;41088;44.012;20.902;2022-08-20T07:42:57;743.00;2278.40
55219;DHT22;41088;44.012;20.902;2022-08-20T07:45:29;743.00;2278.40
55219;DHT22;41088;44.012;20.902;2022-08-20T07:48:05;742.90;2252.80
55219;DHT22;41088;44.012;20.902;2022-08-20T07:50:31;742.80;2252.80
55219;DHT22;41088;44.012;20.902;2022-08-20T07:53:03;742.70;2278.40
55219;DHT22;41088;44.012;20.902;2022-08-20T07:55:30;742.50;2278.40
55219;DHT22;41088;44.012;20.902;2022-08-20T07:58:00;742.40;2304.00
55219;DHT22;41088;44.012;20.902;2022-08-20T08:00:31;717.40;2329.60
55219;DHT22;41088;44.012;20.902;2022-08-20T08:02:57;716.90;2432.00
55219;DHT22;41088;44.012;20.902;2022-08-20T08:05:23;716.80;2432.00
55219;DHT22;41088;44.012;20.902;2022-08-20T08:07:50;692.00;2432.00
55219;DHT22;41088;44.012;20.902;2022-08-20T08:10:18;691.80;2432.00
55219;DHT22;41088;44.012;20.902;2022-08-20T08:12:48;691.50;2432.00
55219;DHT22;41088;44.012;20.902;2022-08-20T08:15:19;691.30;2432.00
55219;DHT22;41088;44.012;20.902;2022-08-20T08:22:41;666.10;2432.00
55219;DHT22;41088;44.012;20.902;2022-08-20T08:25:09;666.10;2432.00
55219;DHT22;41088;44.012;20.902;2022-08-20T08:27:36;666.20;2432.00
55219;DHT22;41088;44.012;20.902;2022-08-20T08:30:03;666.20;2432.00
55219;DHT22;41088;44.012;20.902;2022-08-20T08:32:29;666.20;2432.00
55219;DHT22;41088;44.012;20.902;2022-08-20T08:35:03;666.20;2432.00
55219;DHT22;41088;44.012;20.902;2022-08-20T08:37:30;666.20;2432.00
55219;DHT22;41088;44.012;20.902;2022-08-20T08:39:56;666.10;2432.00
55219;DHT22;41088;44.012;20.902;2022-08-20T08:42:50;666.10;2432.00
55219;DHT22;41088;44.012;20.902;2022-08-20T08:45:20;665.80;2432.00
55219;DHT22;41088;44.012;20.902;2022-08-20T08:47:46;640.90;2432.00
55219;DHT22;41088;44.012;20.902;2022-08-20T08:50:22;640.80;2432.00
55219;DHT22;41088;44.012;20.902;2022-08-20T08:52:53;640.80;2432.00
55219;DHT22;41088;44.012;20.902;2022-08-20T08:55:22;640.80;2432.00
55219;DHT22;41088;44.012;20.902;2022-08-20T08:57:49;640.80;2432.00
55219;DHT22;41088;44.012;20.902;2022-08-20T09:00:22;640.50;2432.00
55219;DHT22;41088;44.012;20.902;2022-08-20T09:03:07;640.40;2432.00
55219;DHT22;41088;44.012;20.902;2022-08-20T09:08:08;640.10;2432.00
55219;DHT22;41088;44.012;20.902;2022-08-20T09:10:36;640.20;2432.00
55219;DHT22;41088;44.012;20.902;2022-08-20T09:13:04;640.20;2432.00
55219;DHT22;41088;44.012;20.902;2022-08-20T09:15:54;640.30;2432.00
55219;DHT22;41088;44.012;20.902;2022-08-20T09:18:45;640.30;2432.00
55219;DHT22;41088;44.012;20.902;2022-08-20T09:21:22;640.40;2432.00
55219;DHT22;41088;44.012;20.902;2022-08-20T09:23:51;640.40;2432.00
55219;DHT22;41088;44.012;20.902;2022-08-20T09:26:28;640.50;2432.00
55219;DHT22;41088;44.012;20.902;2022-08-20T09:28:59;640.50;2432.00
55219;DHT22;41088;44.012;20.902;2022-08-20T09:31:41;640.50;2432.00
55219;DHT22;41088;44.012;20.902;2022-08-20T09:34:07;640.60;2432.00
55219;DHT22;41088;44.012;20.902;2022-08-20T09:36:33;640.80;2432.00
55219;DHT22;41088;44.012;20.902;2022-08-20T09:39:00;640.60;2432.00
55219;DHT22;41088;44.012;20.902;2022-08-20T09:41:26;640.80;2432.00
55219;DHT22;41088;44.012;20.902;2022-08-20T09:43:55;640.70;2432.00
55219;DHT22;41088;44.012;20.902;2022-08-20T09:46:21;640.60;2432.00
55219;DHT22;41088;44.012;20.902;2022-08-20T09:48:46;640.60;2432.00
55219;DHT22;41088;44.012;20.902;2022-08-20T09:51:13;640.70;2432.00
55219;DHT22;41088;44.012;20.902;2022-08-20T09:53:46;640.60;2432.00
55219;DHT22;41088;44.012;20.902;2022-08-20T09:56:14;640.60;2432.00
55219;DHT22;41088;44.012;20.902;2022-08-20T09:58:50;640.20;2432.00
55219;DHT22;41088;44.012;20.902;2022-08-20T10:01:20;640.30;2432.00
55219;DHT22;41088;44.012;20.902;2022-08-20T10:03:48;640.30;2432.00
55219;DHT22;41088;44.012;20.902;2022-08-20T10:06:17;640.30;2432.00
55219;DHT22;41088;44.012;20.902;2022-08-20T10:08:46;640.40;2432.00
55219;DHT22;41088;44.012;20.902;2022-08-20T10:11:16;640.50;2432.00
55219;DHT22;41088;44.012;20.902;2022-08-20T10:13:52;640.40;2432.00
55219;DHT22;41088;44.012;20.902;2022-08-20T10:17:16;640.50;2432.00
55219;DHT22;41088;44.012;20.902;2022-08-20T10:19:55;640.50;2432.00
55219;DHT22;41088;44.012;20.902;2022-08-20T10:22:21;640.60;2432.00
55219;DHT22;41088;44.012;20.902;2022-08-20T10:24:48;640.70;2432.00
55219;DHT22;41088;44.012;20.902;2022-08-20T10:27:27;640.80;2432.00
55219;DHT22;41088;44.012;20.902;2022-08-20T10:30:28;640.60;2432.00
55219;DHT22;41088;44.012;20.902;2022-08-20T10:32:54;640.50;2432.00
55219;DHT22;41088;44.012;20.902;2022-08-20T10:35:20;640.50;2432.00
55219;DHT22;41088;44.012;20.902;2022-08-20T10:37:46;640.50;2432.00
55219;DHT22;41088;44.012;20.902;2022-08-20T10:40:12;640.40;2432.00
55219;DHT22;41088;44.012;20.902;2022-08-20T10:42:41;640.00;2432.00
55219;DHT22;41088;44.012;20.902;2022-08-20T10:45:09;615.20;2432.00
55219;DHT22;41088;44.012;20.902;2022-08-20T10:47:35;615.30;2432.00
55219;DHT22;41088;44.012;20.902;2022-08-20T10:50:04;640.10;2432.00
55219;DHT22;41088;44.012;20.902;2022-08-20T10:52:30;640.40;2432.00
55219;DHT22;41088;44.012;20.902;2022-08-20T10:55:16;640.60;2432.00
55219;DHT22;41088;44.012;20.902;2022-08-20T10:57:43;640.90;2432.00
55219;DHT22;41088;44.012;20.902;2022-08-20T11:00:19;665.60;2432.00
55219;DHT22;41088;44.012;20.902;2022-08-20T11:02:46;665.80;2432.00
55219;DHT22;41088;44.012;20.902;2022-08-20T11:05:24;666.10;2432.00
55219;DHT22;41088;44.012;20.902;2022-08-20T11:07:57;666.30;2432.00
55219;DHT22;41088;44.012;20.902;2022-08-20T11:10:28;691.20;2432.00
55219;DHT22;41088;44.012;20.902;2022-08-20T11:15:25;691.50;2432.00
55219;DHT22;41088;44.012;20.902;2022-08-20T11:17:56;691.70;2432.00
55219;DHT22;41088;44.012;20.902;2022-08-20T11:35:10;716.80;2432.00
55219;DHT22;41088;44.012;20.902;2022-08-20T12:15:10;742.70;2432.00
55219;DHT22;41088;44.012;20.902;2022-08-20T12:17:36;742.80;2432.00
55219;DHT22;41088;44.012;20.902;2022-08-20T12:30:01;743.00;2432.00
55219;DHT22;41088;44.012;20.902;2022-08-20T12:32:29;742.90;2432.00
55219;DHT22;41088;44.012;20.902;2022-08-20T12:37:25;743.00;2432.00
55219;DHT22;41088;44.012;20.902;2022-08-20T12:39:54;742.80;2432.00
55219;DHT22;41088;44.012;20.902;2022-08-20T12:42:21;742.40;2432.00
55219;DHT22;41088;44.012;20.902;2022-08-20T12:44:47;717.70;2432.00
55219;DHT22;41088;44.012;20.902;2022-08-20T12:47:22;717.50;2432.00
55219;DHT22;41088;44.012;20.902;2022-08-20T12:49:54;717.60;2432.00
55219;DHT22;41088;44.012;20.902;2022-08-20T12:52:29;717.40;2432.00
55219;DHT22;41088;44.012;20.902;2022-08-20T13:05:20;742.60;2432.00
55219;DHT22;41088;44.012;20.902;2022-08-20T13:07:47;742.50;2432.00
55219;DHT22;41088;44.012;20.902;2022-08-20T13:10:29;742.40;2432.00
55219;DHT22;41088;44.012;20.902;2022-08-20T13:17:53;717.40;2432.00
55219;DHT22;41088;44.012;20.902;2022-08-20T13:20:22;717.20;2432.00
55219;DHT22;41088;44.012;20.902;2022-08-20T13:23:03;717.10;2432.00
55219;DHT22;41088;44.012;20.902;2022-08-20T13:40:16;692.00;2432.00
55219;DHT22;41088;44.012;20.902;2022-08-20T13:42:43;692.00;2432.00
55219;DHT22;41088;44.012;20.902;2022-08-20T13:45:12;691.90;2432.00
55219;DHT22;41088;44.012;20.902;2022-08-20T13:47:39;691.80;2432.00
55219;DHT22;41088;44.012;20.902;2022-08-20T13:50:09;691.70;2432.00
55219;DHT22;41088;44.012;20.902;2022-08-20T13:52:38;691.60;2432.00
55219;DHT22;41088;44.012;20.902;2022-08-20T13:55:08;691.60;2432.00
55219;DHT22;41088;44.012;20.902;2022-08-20T13:57:37;691.50;2432.00
55219;DHT22;41088;44.012;20.902;2022-08-20T14:00:06;691.50;2432.00
55219;DHT22;41088;44.012;20.902;2022-08-20T14:07:28;666.20;2432.00
55219;DHT22;41088;44.012;20.902;2022-08-20T14:10:07;665.80;2432.00
55219;DHT22;41088;44.012;20.902;2022-08-20T14:12:34;665.70;2432.00
55219;DHT22;41088;44.012;20.902;2022-08-20T14:15:00;640.90;2432.00
55219;DHT22;41088;44.012;20.902;2022-08-20T14:17:38;665.60;2432.00
55219;DHT22;41088;44.012;20.902;2022-08-20T14:20:11;665.60;2432.00
55219;DHT22;41088;44.012;20.902;2022-08-20T14:22:38;665.60;2432.00
55219;DHT22;41088;44.012;20.902;2022-08-20T14:25:06;665.60;2432.00
55219;DHT22;41088;44.012;20.902;2022-08-20T14:27:33;665.60;2432.00
55219;DHT22;41088;44.012;20.902;2022-08-20T14:30:00;640.90;2432.00
55219;DHT22;41088;44.012;20.902;2022-08-20T14:32:27;640.90;2432.00
55219;DHT22;41088;44.012;20.902;2022-08-20T14:34:54;640.80;2432.00
55219;DHT22;41088;44.012;20.902;2022-08-20T14:37:26;640.90;2432.00
55219;DHT22;41088;44.012;20.902;2022-08-20T14:40:08;640.90;2432.00
55219;DHT22;41088;44.012;20.902;2022-08-20T14:42:40;640.60;2432.00
55219;DHT22;41088;44.012;20.902;2022-08-20T14:45:09;640.70;2432.00
55219;DHT22;41088;44.012;20.902;2022-08-20T14:47:53;640.70;2432.00
55219;DHT22;41088;44.012;20.902;2022-08-20T14:50:32;640.70;2432.00
55219;DHT22;41088;44.012;20.902;2022-08-20T14:53:09;640.70;2432.00
55219;DHT22;41088;44.012;20.902;2022-08-20T14:55:36;640.70;2432.00
55219;DHT22;41088;44.012;20.902;2022-08-20T14:58:10;640.80;2432.00
55219;DHT22;41088;44.012;20.902;2022-08-20T15:00:36;640.80;2432.00
55219;DHT22;41088;44.012;20.902;2022-08-20T15:03:02;665.60;2432.00
55219;DHT22;41088;44.012;20.902;2022-08-20T15:05:28;665.60;2432.00
55219;DHT22;41088;44.012;20.902;2022-08-20T15:07:55;665.80;2432.00
55219;DHT22;41088;44.012;20.902;2022-08-20T15:10:26;665.80;2432.00
55219;DHT22;41088;44.012;20.902;2022-08-20T15:12:52;666.10;2432.00
55219;DHT22;41088;44.012;20.902;2022-08-20T15:15:19;666.10;2432.00
55219;DHT22;41088;44.012;20.902;2022-08-20T15:17:49;666.10;2432.00
55219;DHT22;41088;44.012;20.902;2022-08-20T15:20:17;666.10;2432.00
55219;DHT22;41088;44.012;20.902;2022-08-20T15:22:43;666.20;2432.00
55219;DHT22;41088;44.012;20.902;2022-08-20T15:25:12;666.20;2432.00
55219;DHT22;41088;44.012;20.902;2022-08-20T15:27:40;666.20;2432.00
55219;DHT22;41088;44.012;20.902;2022-08-20T15:30:11;666.20;2432.00
55219;DHT22;41088;44.012;20.902;2022-08-20T15:32:37;666.20;2432.00
55219;DHT22;41088;44.012;20.902;2022-08-20T15:35:04;666.20;2432.00
55219;DHT22;41088;44.012;20.902;2022-08-20T15:37:31;666.10;2432.00
55219;DHT22;41088;44.012;20.902;2022-08-20T15:40:02;666.00;2432.00
55219;DHT22;41088;44.012;20.902;2022-08-20T15:42:32;666.10;2432.00
55219;DHT22;41088;44.012;20.902;2022-08-20T15:44:59;666.10;2432.00
55219;DHT22;41088;44.012;20.902;2022-08-20T15:47:29;666.00;2432.00
55219;DHT22;41088;44.012;20.902;2022-08-20T15:50:02;665.90;2432.00
55219;DHT22;41088;44.012;20.902;2022-08-20T15:52:36;665.90;2432.00
55219;DHT22;41088;44.012;20.902;2022-08-20T15:55:03;665.80;2432.00
55219;DHT22;41088;44.012;20.902;2022-08-20T15:57:58;665.70;2432.00
55219;DHT22;41088;44.012;20.902;2022-08-20T16:00:36;665.60;2432.00
55219;DHT22;41088;44.012;20.902;2022-08-20T16:03:47;640.90;2432.00
55219;DHT22;41088;44.012;20.902;2022-08-20T16:06:22;640.90;2432.00
55219;DHT22;41088;44.012;20.902;2022-08-20T16:12:09;640.90;2432.00
55219;DHT22;41088;44.012;20.902;2022-08-20T16:14:41;640.90;2432.00
55219;DHT22;41088;44.012;20.902;2022-08-20T16:17:15;640.90;2432.00
55219;DHT22;41088;44.012;20.902;2022-08-20T16:22:42;640.90;2432.00
55219;DHT22;41088;44.012;20.902;2022-08-20T16:25:10;640.90;2432.00
55219;DHT22;41088;44.012;20.902;2022-08-20T16:30:44;640.90;2432.00
55219;DHT22;41088;44.012;20.902;2022-08-20T16:33:35;640.90;2432.00
55219;DHT22;41088;44.012;20.902;2022-08-20T16:36:32;640.90;2432.00
55219;DHT22;41088;44.012;20.902;2022-08-20T16:39:26;640.90;2432.00
55219;DHT22;41088;44.012;20.902;2022-08-20T16:41:55;665.60;2432.00
55219;DHT22;41088;44.012;20.902;2022-08-20T16:44:36;665.60;2432.00
55219;DHT22;41088;44.012;20.902;2022-08-20T16:47:19;665.60;2432.00
55219;DHT22;41088;44.012;20.902;2022-08-20T16:50:00;665.70;2432.00
55219;DHT22;41088;44.012;20.902;2022-08-20T16:52:31;665.70;2432.00
55219;DHT22;41088;44.012;20.902;2022-08-20T16:55:03;665.70;2432.00
55219;DHT22;41088;44.012;20.902;2022-08-20T16:57:29;665.80;2432.00
55219;DHT22;41088;44.012;20.902;2022-08-20T17:00:25;665.80;2432.00
55219;DHT22;41088;44.012;20.902;2022-08-20T17:03:25;665.70;2432.00
55219;DHT22;41088;44.012;20.902;2022-08-20T17:05:54;665.70;2432.00
55219;DHT22;41088;44.012;20.902;2022-08-20T17:08:30;665.60;2432.00
55219;DHT22;41088;44.012;20.902;2022-08-20T17:11:13;640.90;2432.00
55219;DHT22;41088;44.012;20.902;2022-08-20T17:13:45;640.90;2432.00
55219;DHT22;41088;44.012;20.902;2022-08-20T17:26:03;640.50;2432.00